Sloulin Field International Airport
KISN : now visible

Airfield :











YOU CAN JOIN US ON...

 
LOGIN :

Register | Disclaimer

   EN    FR    IT 

 









Legend :    VFR   Marginal VFR   IFR   Intensive IFR   Very Intensive IFR
Visi :
Ceiling :
>= 8 km
>= 3000ft
5 to 8 km
1000 to 3000 ft
1500m to 5 km
500 to 1000 ft
800 to 1500m
200 to 500 ft
< 800m
< 200 ft
Symbols :   Thunderstorms  Fog  Heavy snow  Heavy precipitations  Wind > 20 kt







- Airport Elevation : 1982 ft


KISN - Sloulin Field International

CURRENT METAR :
  • 260352Z AUTO 32008KT 10SM CLR 17/11 A2983 RMK AO2 SLP093 T01720111 $

EXPIRED METARs :
  • 260252Z AUTO 33007KT 10SM CLR 18/11 A2980 RMK AO2 SLP085 T01780111 53020 $
  • 260152Z AUTO 28006KT 10SM CLR 19/10 A2976 RMK AO2 SLP071 T01890100 $

TAF KISN
Valid from the 26 at 02:00 until the 27 at 00:00 UTC


260210Z 2602/2624 29008KT P6SM FEW070 FEW120
FM260600 32006KT P6SM SCT050 BKN180
FM261000 28006KT P6SM SCT080 SCT180
FM261500 31013G18KT P6SM FEW060 SCT200
FM261700 31017G25KT P6SM VCSH SCT070
No reported NOTAMs for that airfield.



MET'MAP, your aeronautical weather chart ! - Copyright ORBIFLY December 2007 - Disclaimer

ORBIFLY MET'MAP TEAM :

Programming & Development : Alexandra Zaïnal
Concept & Development : Baudouin d'Aumeries
Co-Development & Prog : Marc-Olivier Méhu
Technical & hardware support : Manuel Goepfert

Contact : metmap@orbifly.com




SOURCES & CREDITS :

   NOAA       Earth
Advisory